createdAt,value
2019-04-28T00:02:22.482Z,9.10
2019-04-28T00:04:51.467Z,9.18
2019-04-28T00:07:21.575Z,8.43
2019-04-28T00:09:51.122Z,9.38
2019-04-28T00:12:21.016Z,9.30
2019-04-28T00:14:51.624Z,9.23
2019-04-28T00:17:21.162Z,9.23
2019-04-28T00:19:51.480Z,9.80
2019-04-28T00:22:28.002Z,8.90
2019-04-28T00:25:01.635Z,9.33
2019-04-28T00:27:31.607Z,10.10
2019-04-28T00:30:01.972Z,8.75
2019-04-28T00:32:32.500Z,9.13
2019-04-28T00:35:02.334Z,8.80
2019-04-28T00:37:32.183Z,8.83
2019-04-28T00:40:01.197Z,8.63
2019-04-28T00:42:31.501Z,9.03
2019-04-28T00:45:01.585Z,9.90
2019-04-28T00:47:31.141Z,9.45
2019-04-28T00:50:01.957Z,9.33
2019-04-28T00:52:32.028Z,9.25
2019-04-28T00:55:01.160Z,8.98
2019-04-28T00:57:30.967Z,10.55
2019-04-28T01:00:02.105Z,9.58
2019-04-28T01:02:34.523Z,9.03
2019-04-28T01:05:03.269Z,9.98
2019-04-28T01:07:33.072Z,9.25
2019-04-28T01:10:01.937Z,9.00
2019-04-28T01:12:31.093Z,10.05
2019-04-28T01:15:02.630Z,9.93
2019-04-28T01:17:44.041Z,9.83
2019-04-28T01:20:14.428Z,10.20
2019-04-28T01:22:43.251Z,9.95
2019-04-28T01:25:12.287Z,9.68
2019-04-28T01:27:42.675Z,9.58
2019-04-28T01:30:14.260Z,7.20
2019-04-28T01:32:44.577Z,9.63
2019-04-28T01:35:13.323Z,10.50
2019-04-28T01:37:42.001Z,9.43
2019-04-28T01:40:10.851Z,9.80
2019-04-28T01:42:41.281Z,10.23
2019-04-28T01:45:10.607Z,9.75
2019-04-28T01:47:40.497Z,9.63
2019-04-28T01:50:10.231Z,10.45
2019-04-28T01:52:39.938Z,9.78
2019-04-28T01:55:10.166Z,10.78
2019-04-28T01:57:39.965Z,10.30
2019-04-28T02:00:22.336Z,10.32
2019-04-28T02:02:42.131Z,11.18
2019-04-28T02:05:11.169Z,10.05
2019-04-28T02:07:40.719Z,10.05
2019-04-28T02:10:10.292Z,11.55
2019-04-28T02:12:40.361Z,11.40
2019-04-28T02:15:10.445Z,11.60
2019-04-28T02:17:40.124Z,12.20
2019-04-28T02:20:10.387Z,11.35
2019-04-28T02:22:46.944Z,12.05
2019-04-28T02:25:15.765Z,11.53
2019-04-28T02:27:44.513Z,11.43
2019-04-28T02:30:13.281Z,11.57
2019-04-28T02:32:42.519Z,13.13
2019-04-28T02:35:11.348Z,11.75
2019-04-28T02:37:40.688Z,11.80
2019-04-28T02:40:10.854Z,12.73
2019-04-28T02:42:40.993Z,13.43
2019-04-28T02:45:11.576Z,9.65
2019-04-28T02:47:41.946Z,12.45
2019-04-28T02:50:20.925Z,11.93
2019-04-28T02:53:06.451Z,11.55
2019-04-28T02:55:35.193Z,12.65
2019-04-28T02:58:03.878Z,12.28
2019-04-28T03:00:32.618Z,12.33
2019-04-28T03:03:01.652Z,11.80
2019-04-28T03:05:33.296Z,11.88
2019-04-28T03:08:01.300Z,13.00
2019-04-28T03:10:31.081Z,12.80
2019-04-28T03:13:01.062Z,12.30
2019-04-28T03:15:30.576Z,11.97
2019-04-28T03:18:01.701Z,12.00
2019-04-28T03:20:30.751Z,12.25
2019-04-28T03:23:00.994Z,11.68
2019-04-28T03:25:37.241Z,11.08
2019-04-28T03:28:07.632Z,11.70
2019-04-28T03:30:53.999Z,11.53
2019-04-28T03:33:25.469Z,11.08
2019-04-28T03:35:53.570Z,11.18
2019-04-28T03:38:22.432Z,11.48
2019-04-28T03:40:51.402Z,10.53
2019-04-28T03:43:21.164Z,10.25
2019-04-28T03:45:57.424Z,10.03
2019-04-28T03:48:26.173Z,10.68
2019-04-28T03:50:54.922Z,11.08
2019-04-28T03:53:23.606Z,10.78
2019-04-28T03:55:52.348Z,10.28
2019-04-28T03:58:23.702Z,10.38
2019-04-28T04:00:51.357Z,10.43
2019-04-28T04:03:20.973Z,10.10
2019-04-28T04:05:50.877Z,10.08
2019-04-28T04:08:20.833Z,9.63
2019-04-28T04:10:54.490Z,10.30
2019-04-28T04:13:33.752Z,9.03
2019-04-28T04:16:20.661Z,10.05
2019-04-28T04:18:53.686Z,9.58
2019-04-28T04:21:21.678Z,9.95
2019-04-28T04:23:50.940Z,9.43
2019-04-28T04:26:21.320Z,9.38
2019-04-28T04:28:51.459Z,10.20
2019-04-28T04:31:20.578Z,10.00
2019-04-28T04:33:50.599Z,8.80
2019-04-28T04:36:21.161Z,10.35
2019-04-28T04:38:51.377Z,9.75
2019-04-28T04:41:20.718Z,9.15
2019-04-28T04:43:51.286Z,8.60
2019-04-28T04:46:22.313Z,9.15
2019-04-28T04:48:51.382Z,9.65
2019-04-28T04:51:21.304Z,9.40
2019-04-28T04:53:51.207Z,9.25
2019-04-28T04:56:21.270Z,8.88
2019-04-28T04:58:50.548Z,9.28
2019-04-28T05:01:30.464Z,9.20
2019-04-28T05:04:06.529Z,8.25
2019-04-28T05:06:39.967Z,8.45
2019-04-28T05:09:10.284Z,7.78
2019-04-28T05:11:40.040Z,9.00
2019-04-28T05:14:11.600Z,8.53
2019-04-28T05:16:39.800Z,8.55
2019-04-28T05:19:10.128Z,8.85
2019-04-28T05:21:40.099Z,8.03
2019-04-28T05:24:15.668Z,8.33
2019-04-28T05:26:47.425Z,8.20
2019-04-28T05:29:11.916Z,8.68
2019-04-28T05:31:40.736Z,8.20
2019-04-28T05:34:11.553Z,8.35
2019-04-28T05:36:44.409Z,9.20
2019-04-28T05:39:10.496Z,6.03
2019-04-28T05:41:39.996Z,7.80
2019-04-28T05:44:10.080Z,8.75
2019-04-28T05:46:40.235Z,8.30
2019-04-28T05:49:19.576Z,9.33
2019-04-28T05:51:50.460Z,9.43
2019-04-28T05:57:06.434Z,8.43
2019-04-28T05:59:50.017Z,8.55
2019-04-28T06:02:21.781Z,8.48
2019-04-28T06:04:50.696Z,9.35
2019-04-28T06:07:30.509Z,8.65
2019-04-28T06:10:00.134Z,8.98
2019-04-28T06:12:30.248Z,9.30
2019-04-28T06:15:00.152Z,9.35
2019-04-28T06:17:29.487Z,8.98
2019-04-28T06:20:00.064Z,9.33
2019-04-28T06:22:28.630Z,8.33
2019-04-28T06:24:57.333Z,8.33
2019-04-28T06:27:26.008Z,9.13
2019-04-28T06:29:54.684Z,8.73
2019-04-28T06:32:23.441Z,9.00
2019-04-28T06:34:52.118Z,9.30
2019-04-28T06:37:20.837Z,9.03
2019-04-28T06:39:49.640Z,9.33
2019-04-28T06:42:18.317Z,10.65
2019-04-28T06:44:46.995Z,9.35
2019-04-28T06:47:16.948Z,10.82
2019-04-28T06:49:45.717Z,10.60
2019-04-28T06:52:14.391Z,11.03
2019-04-28T06:54:43.082Z,11.12
2019-04-28T06:57:11.770Z,11.50
2019-04-28T06:59:40.442Z,11.53
2019-04-28T07:02:09.053Z,12.00
2019-04-28T07:04:37.796Z,11.97
2019-04-28T07:07:06.488Z,11.33
2019-04-28T07:09:35.238Z,11.28
2019-04-28T07:12:03.924Z,12.07
2019-04-28T07:14:32.620Z,12.88
2019-04-28T07:17:01.305Z,12.37
2019-04-28T07:19:29.976Z,12.93
2019-04-28T07:22:15.135Z,13.05
2019-04-28T07:24:44.946Z,12.60
2019-04-28T07:27:13.730Z,12.18
2019-04-28T07:29:42.408Z,13.30
2019-04-28T07:32:12.272Z,13.65
2019-04-28T07:34:40.953Z,12.95
2019-04-28T07:37:09.638Z,14.60
2019-04-28T07:39:38.326Z,14.07
2019-04-28T07:42:06.996Z,14.00
2019-04-28T07:44:35.753Z,14.13
2019-04-28T07:47:04.963Z,14.98
2019-04-28T07:49:33.716Z,13.90
2019-04-28T07:52:16.249Z,13.88
2019-04-28T07:54:44.932Z,13.35
2019-04-28T07:57:13.612Z,12.90
2019-04-28T07:59:42.297Z,13.22
2019-04-28T08:02:11.123Z,12.47
2019-04-28T08:04:39.810Z,13.38
2019-04-28T08:07:08.475Z,12.35
2019-04-28T08:09:38.761Z,13.08
2019-04-28T08:12:07.740Z,13.00
2019-04-28T08:14:36.459Z,12.75
2019-04-28T08:17:05.230Z,13.65
2019-04-28T08:19:33.969Z,12.50
2019-04-28T08:22:02.658Z,13.60
2019-04-28T08:24:31.418Z,13.25
2019-04-28T08:27:00.162Z,12.80
2019-04-28T08:29:28.849Z,13.10
2019-04-28T08:32:04.714Z,12.47
2019-04-28T08:34:33.469Z,12.90
2019-04-28T08:37:02.146Z,13.10
2019-04-28T08:39:30.836Z,13.45
2019-04-28T08:41:59.512Z,13.20
2019-04-28T08:44:28.262Z,13.38
2019-04-28T08:46:56.940Z,13.48
2019-04-28T08:49:25.624Z,15.10
2019-04-28T08:51:54.305Z,12.90
2019-04-28T08:54:22.983Z,13.03
2019-04-28T08:56:51.738Z,12.95
2019-04-28T08:59:20.423Z,14.00
2019-04-28T09:01:49.179Z,13.55
2019-04-28T09:04:17.967Z,11.97
2019-04-28T09:06:46.633Z,12.50
2019-04-28T09:09:17.029Z,14.23
2019-04-28T09:11:45.699Z,12.82
2019-04-28T09:14:14.466Z,12.53
2019-04-28T09:16:43.146Z,12.98
2019-04-28T09:19:11.823Z,13.28
2019-04-28T09:21:40.506Z,12.93
2019-04-28T09:24:09.429Z,12.68
2019-04-28T09:26:38.196Z,12.93
2019-04-28T09:29:06.881Z,12.40
2019-04-28T09:31:35.685Z,11.48
2019-04-28T09:34:05.340Z,12.05
2019-04-28T09:36:34.109Z,12.05
2019-04-28T09:39:04.421Z,13.10
2019-04-28T09:41:33.564Z,12.35
2019-04-28T09:44:03.876Z,12.82
2019-04-28T09:46:34.200Z,11.03
2019-04-28T09:49:02.945Z,11.35
2019-04-28T09:51:31.698Z,10.55
2019-04-28T09:54:00.377Z,10.88
2019-04-28T09:56:29.136Z,11.40
2019-04-28T09:58:57.893Z,11.80
2019-04-28T10:01:26.638Z,11.00
2019-04-28T10:03:55.317Z,11.93
2019-04-28T10:06:24.002Z,11.48
2019-04-28T10:08:52.701Z,11.83
2019-04-28T10:11:30.335Z,11.10
2019-04-28T10:13:51.824Z,10.63
2019-04-28T10:16:20.753Z,10.90
2019-04-28T10:18:49.678Z,10.58
2019-04-28T10:21:18.441Z,10.72
2019-04-28T10:23:47.178Z,10.98
2019-04-28T10:26:15.945Z,10.45
2019-04-28T10:28:44.628Z,10.43
2019-04-28T10:31:13.582Z,10.72
2019-04-28T10:33:43.897Z,10.23
2019-04-28T10:36:12.657Z,10.82
2019-04-28T10:38:42.966Z,11.20
2019-04-28T10:41:13.286Z,10.43
2019-04-28T10:43:42.032Z,10.20
2019-04-28T10:46:10.794Z,11.48
2019-04-28T10:48:39.468Z,11.25
2019-04-28T10:51:08.225Z,11.08
2019-04-28T10:53:36.980Z,10.35
2019-04-28T10:56:05.670Z,10.30
2019-04-28T10:58:34.426Z,10.00
2019-04-28T11:01:03.252Z,11.30
2019-04-28T11:03:31.937Z,10.75
2019-04-28T11:06:00.616Z,10.13
2019-04-28T11:08:42.737Z,9.73
2019-04-28T11:11:13.120Z,9.85
2019-04-28T11:13:41.798Z,9.53
2019-04-28T11:16:12.194Z,10.90
2019-04-28T11:18:40.942Z,10.40
2019-04-28T11:21:09.617Z,10.60
2019-04-28T11:23:38.368Z,10.78
2019-04-28T11:26:07.044Z,9.88
2019-04-28T11:28:37.881Z,11.12
2019-04-28T11:31:06.481Z,11.05
2019-04-28T11:33:39.778Z,10.28
2019-04-28T11:36:08.593Z,9.78
2019-04-28T11:38:37.293Z,10.78
2019-04-28T11:41:06.206Z,10.88
2019-04-28T11:43:35.030Z,10.15
2019-04-28T11:46:05.417Z,10.75
2019-04-28T11:48:34.172Z,10.82
2019-04-28T11:51:02.994Z,10.93
2019-04-28T11:53:31.673Z,9.83
2019-04-28T11:56:00.418Z,11.65
2019-04-28T11:58:29.097Z,10.75
2019-04-28T12:00:57.850Z,9.88
2019-04-28T12:03:26.517Z,10.45
2019-04-28T12:05:55.273Z,10.55
2019-04-28T12:08:23.949Z,10.63
2019-04-28T12:10:54.269Z,10.78
2019-04-28T12:13:24.658Z,9.73
2019-04-28T12:15:57.726Z,12.15
2019-04-28T12:18:44.440Z,10.03
2019-04-28T12:21:13.191Z,9.98
2019-04-28T12:23:41.874Z,10.60
2019-04-28T12:26:10.630Z,9.90
2019-04-28T12:28:39.302Z,9.45
2019-04-28T12:31:07.997Z,10.18
2019-04-28T12:33:36.680Z,10.65
2019-04-28T12:36:07.420Z,9.85
2019-04-28T12:38:36.268Z,9.55
2019-04-28T12:41:05.089Z,9.50
2019-04-28T12:43:33.850Z,9.83
2019-04-28T12:46:02.597Z,9.70
2019-04-28T12:48:32.663Z,9.68
2019-04-28T12:51:01.595Z,9.20
2019-04-28T12:53:30.361Z,9.53
2019-04-28T12:55:59.034Z,9.58
2019-04-28T12:58:27.712Z,9.23
2019-04-28T13:01:04.090Z,8.80
2019-04-28T13:03:34.478Z,8.68
2019-04-28T13:06:05.965Z,9.18
2019-04-28T13:08:34.840Z,8.03
2019-04-28T13:11:03.686Z,8.40
2019-04-28T13:13:32.370Z,8.63
2019-04-28T13:16:01.048Z,8.35
2019-04-28T13:18:29.734Z,8.40
2019-04-28T13:20:59.119Z,8.48
2019-04-28T13:23:27.856Z,8.20
2019-04-28T13:25:56.602Z,10.10
2019-04-28T13:28:25.281Z,9.88
2019-04-28T13:30:53.951Z,8.30
2019-04-28T13:33:22.699Z,7.58
2019-04-28T13:35:51.453Z,7.10
2019-04-28T13:38:20.198Z,6.92
2019-04-28T13:40:48.949Z,7.67
2019-04-28T13:43:17.551Z,7.12
2019-04-28T13:45:46.229Z,7.33
2019-04-28T13:48:15.000Z,7.67
2019-04-28T13:50:43.741Z,6.83
2019-04-28T13:53:12.579Z,6.87
2019-04-28T13:55:48.851Z,8.33
2019-04-28T13:58:19.126Z,7.40
2019-04-28T14:00:55.288Z,6.15
2019-04-28T14:03:28.657Z,6.15
2019-04-28T14:05:58.972Z,7.00
2019-04-28T14:08:27.718Z,7.30
2019-04-28T14:10:56.472Z,6.25
2019-04-28T14:13:25.248Z,5.70
2019-04-28T14:15:54.042Z,5.87
2019-04-28T14:18:22.677Z,7.65
2019-04-28T14:20:51.424Z,5.47
2019-04-28T14:23:20.090Z,6.12
2019-04-28T14:25:48.776Z,5.65
2019-04-28T14:28:17.448Z,6.35
2019-04-28T14:30:46.192Z,7.47
2019-04-28T14:33:16.376Z,5.58
2019-04-28T14:35:45.406Z,4.62
2019-04-28T14:38:14.083Z,5.17
2019-04-28T14:40:42.717Z,5.72
2019-04-28T14:43:11.351Z,5.83
2019-04-28T14:45:40.035Z,5.35
2019-04-28T14:48:08.777Z,4.55
2019-04-28T14:50:37.470Z,5.17
2019-04-28T14:53:08.673Z,5.62
2019-04-28T14:55:36.696Z,5.10
2019-04-28T14:58:05.371Z,4.97
2019-04-28T15:00:52.010Z,5.55
2019-04-28T15:03:22.247Z,4.50
2019-04-28T15:06:07.421Z,4.85
2019-04-28T15:08:55.977Z,4.90
2019-04-28T15:11:26.296Z,4.58
2019-04-28T15:13:55.498Z,4.42
2019-04-28T15:16:24.391Z,4.58
2019-04-28T15:18:53.096Z,5.05
2019-04-28T15:21:21.752Z,5.20
2019-04-28T15:23:50.429Z,5.10
2019-04-28T15:26:19.110Z,5.03
2019-04-28T15:28:47.848Z,4.55
2019-04-28T15:31:16.520Z,4.00
2019-04-28T15:33:45.277Z,4.42
2019-04-28T15:36:14.012Z,4.17
2019-04-28T15:38:42.758Z,4.62
2019-04-28T15:41:21.354Z,4.53
2019-04-28T15:43:41.823Z,4.15
2019-04-28T15:46:10.496Z,3.92
2019-04-28T15:48:39.251Z,3.83
2019-04-28T15:51:07.920Z,4.97
2019-04-28T15:53:36.864Z,4.05
2019-04-28T15:56:07.252Z,4.17
2019-04-28T15:58:37.072Z,4.25
2019-04-28T16:01:06.091Z,4.20
2019-04-28T16:03:34.837Z,4.40
2019-04-28T16:06:03.683Z,4.40
2019-04-28T16:08:32.429Z,3.67
2019-04-28T16:11:01.108Z,4.80
2019-04-28T16:13:29.806Z,3.67
2019-04-28T16:15:58.482Z,5.78
2019-04-28T16:18:27.230Z,3.52
2019-04-28T16:20:55.970Z,3.25
2019-04-28T16:23:24.643Z,3.08
2019-04-28T16:25:53.397Z,3.33
2019-04-28T16:28:23.650Z,3.15
2019-04-28T16:30:52.397Z,3.10
2019-04-28T16:33:21.074Z,3.12
2019-04-28T16:35:49.778Z,3.10
2019-04-28T16:38:18.452Z,3.33
2019-04-28T16:40:52.210Z,2.65
2019-04-28T16:43:22.823Z,3.27
2019-04-28T16:45:51.499Z,2.52
2019-04-28T16:48:20.173Z,3.33
2019-04-28T16:50:48.852Z,4.67
2019-04-28T16:53:17.527Z,3.77
2019-04-28T16:55:47.832Z,6.15
2019-04-28T16:58:20.877Z,4.00
2019-04-28T17:00:59.965Z,3.80
2019-04-28T17:03:30.277Z,3.02
2019-04-28T17:05:58.964Z,3.70
2019-04-28T17:08:27.709Z,3.30
2019-04-28T17:10:56.455Z,3.52
2019-04-28T17:13:25.191Z,3.35
2019-04-28T17:15:53.860Z,4.58
2019-04-28T17:18:22.611Z,3.52
2019-04-28T17:20:54.285Z,3.27
2019-04-28T17:23:21.610Z,3.55
2019-04-28T17:25:50.343Z,3.10
2019-04-28T17:28:19.028Z,3.40
2019-04-28T17:30:47.740Z,3.35
2019-04-28T17:33:16.379Z,4.08
2019-04-28T17:35:45.050Z,3.12
2019-04-28T17:38:13.795Z,3.20
2019-04-28T17:40:42.541Z,3.08
2019-04-28T17:43:11.222Z,2.90
2019-04-28T17:45:39.960Z,3.00
2019-04-28T17:48:19.643Z,3.55
2019-04-28T17:50:48.406Z,2.83
2019-04-28T17:53:17.081Z,2.37
2019-04-28T17:55:45.761Z,2.77
2019-04-28T17:58:14.500Z,2.70
2019-04-28T18:00:53.510Z,2.58
2019-04-28T18:03:40.072Z,2.70
2019-04-28T18:06:17.967Z,2.70
2019-04-28T18:08:46.737Z,2.45
2019-04-28T18:11:15.585Z,2.33
2019-04-28T18:13:44.259Z,3.30
2019-04-28T18:16:17.395Z,3.15
2019-04-28T18:19:03.689Z,3.62
2019-04-28T18:21:32.440Z,2.90
2019-04-28T18:24:01.185Z,3.10
2019-04-28T18:26:29.872Z,3.15
2019-04-28T18:28:58.542Z,2.92
2019-04-28T18:31:31.858Z,3.10
2019-04-28T18:34:13.742Z,3.22
2019-04-28T18:36:46.814Z,3.45
2019-04-28T18:39:25.682Z,3.12
2019-04-28T18:42:14.690Z,3.20
2019-04-28T18:44:42.704Z,3.55
2019-04-28T18:47:11.377Z,3.50
2019-04-28T18:49:40.133Z,3.40
2019-04-28T18:52:08.805Z,3.50
2019-04-28T18:54:38.778Z,3.60
2019-04-28T18:57:07.450Z,3.45
2019-04-28T18:59:36.202Z,3.30
2019-04-28T19:02:12.410Z,3.35
2019-04-28T19:04:41.244Z,4.62
2019-04-28T19:07:11.630Z,3.50
2019-04-28T19:09:41.947Z,3.37
2019-04-28T19:12:20.795Z,3.83
2019-04-28T19:14:51.178Z,3.65
2019-04-28T19:17:21.486Z,3.27
2019-04-28T19:19:50.161Z,3.05
2019-04-28T19:22:18.830Z,3.10
2019-04-28T19:24:47.518Z,3.40
2019-04-28T19:27:16.197Z,4.10
2019-04-28T19:29:44.865Z,5.60
2019-04-28T19:32:13.541Z,3.55
2019-04-28T19:34:42.284Z,2.75
2019-04-28T19:37:10.986Z,3.25
2019-04-28T19:39:40.944Z,3.37
2019-04-28T19:42:09.685Z,3.55
2019-04-28T19:44:38.364Z,4.00
2019-04-28T19:47:07.040Z,2.72
2019-04-28T19:49:35.776Z,3.40
2019-04-28T19:52:04.538Z,2.90
2019-04-28T19:54:34.846Z,3.00
2019-04-28T19:57:13.964Z,3.22
2019-04-28T20:00:00.540Z,4.17
2019-04-28T20:02:30.860Z,3.50
2019-04-28T20:04:59.532Z,4.25
2019-04-28T20:07:28.280Z,3.05
2019-04-28T20:09:56.961Z,3.65
2019-04-28T20:12:25.565Z,3.90
2019-04-28T20:14:54.173Z,3.42
2019-04-28T20:17:22.842Z,3.17
2019-04-28T20:19:51.518Z,3.12
2019-04-28T20:22:20.189Z,3.40
2019-04-28T20:24:48.800Z,3.55
2019-04-28T20:27:17.398Z,3.33
2019-04-28T20:29:46.077Z,3.67
2019-04-28T20:32:14.925Z,2.90
2019-04-28T20:34:43.600Z,2.85
2019-04-28T20:37:13.978Z,3.30
2019-04-28T20:39:44.288Z,3.45
2019-04-28T20:42:30.637Z,3.27
2019-04-28T20:44:59.327Z,3.10
2019-04-28T20:47:27.922Z,3.10
2019-04-28T20:49:56.592Z,3.05
2019-04-28T20:52:25.193Z,3.02
2019-04-28T20:54:53.858Z,2.60
2019-04-28T20:57:22.603Z,3.08
2019-04-28T20:59:51.264Z,3.62
2019-04-28T21:02:19.945Z,3.10
2019-04-28T21:04:48.624Z,3.30
2019-04-28T21:07:17.304Z,3.52
2019-04-28T21:09:45.977Z,3.33
2019-04-28T21:12:14.649Z,3.05
2019-04-28T21:14:43.391Z,3.55
2019-04-28T21:17:12.027Z,3.35
2019-04-28T21:19:40.762Z,3.20
2019-04-28T21:22:09.436Z,3.35
2019-04-28T21:24:38.107Z,3.70
2019-04-28T21:27:06.772Z,3.65
2019-04-28T21:29:35.498Z,3.65
2019-04-28T21:32:04.232Z,4.10
2019-04-28T21:34:32.913Z,3.80
2019-04-28T21:37:01.585Z,3.42
2019-04-28T21:39:30.345Z,3.35
2019-04-28T21:42:00.184Z,3.37
2019-04-28T21:44:30.493Z,3.50
2019-04-28T21:47:03.547Z,3.40
2019-04-28T21:49:33.890Z,3.35
2019-04-28T21:52:02.639Z,3.50
2019-04-28T21:54:31.309Z,3.25
2019-04-28T21:57:00.045Z,3.60
2019-04-28T21:59:29.653Z,3.22
2019-04-28T22:01:58.465Z,3.72
2019-04-28T22:04:27.412Z,3.25
2019-04-28T22:06:56.212Z,4.33
2019-04-28T22:09:25.024Z,3.58
2019-04-28T22:11:53.774Z,3.40
2019-04-28T22:14:22.513Z,3.27
2019-04-28T22:16:51.192Z,3.20
2019-04-28T22:19:20.233Z,3.60
2019-04-28T22:21:48.984Z,3.10
2019-04-28T22:24:19.284Z,3.30
2019-04-28T22:26:52.516Z,2.77
2019-04-28T22:29:21.328Z,3.40
2019-04-28T22:31:50.141Z,3.25
2019-04-28T22:34:18.881Z,3.20
2019-04-28T22:36:47.727Z,2.90
2019-04-28T22:39:16.471Z,3.20
2019-04-28T22:41:45.211Z,2.85
2019-04-28T22:44:13.952Z,3.37
2019-04-28T22:46:42.694Z,3.50
2019-04-28T22:49:11.436Z,3.02
2019-04-28T22:51:40.108Z,3.22
2019-04-28T22:54:13.453Z,3.35
2019-04-28T22:56:43.960Z,3.35
2019-04-28T22:59:16.785Z,3.33
2019-04-28T23:01:47.164Z,3.40
2019-04-28T23:04:23.715Z,3.58
2019-04-28T23:06:52.520Z,3.22
2019-04-28T23:09:21.637Z,4.15
2019-04-28T23:11:50.364Z,3.17
2019-04-28T23:14:19.113Z,5.87
2019-04-28T23:16:47.948Z,3.52
2019-04-28T23:19:18.248Z,3.52
2019-04-28T23:21:54.373Z,3.55
2019-04-28T23:24:23.211Z,3.47
2019-04-28T23:26:51.949Z,3.15
2019-04-28T23:29:20.751Z,3.77
2019-04-28T23:31:49.382Z,3.50
2019-04-28T23:34:18.045Z,5.10
2019-04-28T23:36:46.718Z,3.60
2019-04-28T23:39:15.449Z,4.35
2019-04-28T23:41:48.913Z,3.22
2019-04-28T23:44:17.649Z,3.67
2019-04-28T23:46:57.000Z,3.33
2019-04-28T23:49:26.833Z,3.33
2019-04-28T23:52:15.501Z,3.10
2019-04-28T23:54:51.868Z,3.60
2019-04-28T23:57:20.533Z,3.35
2019-04-28T23:59:49.198Z,3.45
